Pueblo Pintado, New Mexico
Current Conditions -  °F | °C
As of 1:15 PM on Friday 31 Oct 2014 (Local Time) from KLAM Reporting Station
Clear Clear  
Wind Chill: 54°   Ceiling: Unl
Heat Index: 54°   Visibility: 10mi
Dew Point: 28°   Wind: 12mph
Humidity: 36%   Direction: 140°SE
Pressure: 30.39"   Gusts: 16mph
Location:  36.0303°N, 107.257°W
Report Text: KLAM 311915Z AUTO 14010G14KT 10SM CLR 12/M02 A3039 RMK AO2 T01221024
Loading
Personal Weather Stations






























Interactive Weather Map
Tropical Storm Tracking
New forecast layout! Learn more

10-Day Weather Forecast

Advertisements
Track Severe Weather on mobile